Time;durP1;ratioP1;P1;durP2;ratioP2;P2;SDS_P1;SDS_P2;PMS_P1;PMS_P2;Temp;Humidity;BMP_temperature;BMP_pressure;BME280_temperature;BME280_humidity;BME280_pressure;Samples;Min_cycle;Max_cycle;Signal;HPM_P1;HPM_P2
2023/08/20 00:01:42;;;;;;;;;;;18.60;79.80;;;;;;4134845;28;19921;-85
2023/08/20 00:03:47;;;;;;;;;;;18.60;79.80;;;;;;4115976;28;20401;-85
2023/08/20 00:06:08;;;;;;;;;;;18.50;79.80;;;;;;4131071;28;19921;-85
2023/08/20 00:08:28;;;;;;;;;;;18.40;79.80;;;;;;4136656;28;19909;-85
2023/08/20 00:10:49;;;;;;;;;;;18.40;79.80;;;;;;4154728;28;19941;-85
2023/08/20 00:13:09;;;;;;;;;;;18.40;79.80;;;;;;4138778;28;19953;-85
2023/08/20 00:15:30;;;;;;;;;;;18.30;79.80;;;;;;4130640;28;19922;-85
2023/08/20 00:17:51;;;;;;;;;;;18.20;79.80;;;;;;4125348;28;19933;-86
2023/08/20 00:20:14;;;;;;;;;;;18.20;79.80;;;;;;4132033;28;19925;-86
2023/08/20 00:22:35;;;;;;;;;;;18.10;79.80;;;;;;4131490;28;19968;-85
2023/08/20 00:24:55;;;;;;;;;;;18.10;79.80;;;;;;4133140;28;20036;-85
2023/08/20 00:26:56;;;;;;;;;;;18.10;79.80;;;;;;4130208;28;20015;-85
2023/08/20 00:28:56;;;;;;;;;;;18.00;79.80;;;;;;4132593;28;19918;-85
2023/08/20 00:30:57;;;;;;;;;;;18.00;79.80;;;;;;4132703;28;19914;-85
2023/08/20 00:33:01;;;;;;;;;;;18.00;79.90;;;;;;4131902;28;19918;-85
2023/08/20 00:35:04;;;;;;;;;;;17.90;79.90;;;;;;4117856;28;20561;-86
2023/08/20 00:37:25;;;;;;;;;;;17.90;79.80;;;;;;4128626;28;19921;-85
2023/08/20 00:39:45;;;;;;;;;;;17.90;79.80;;;;;;4134651;28;19925;-85
2023/08/20 00:42:07;;;;;;;;;;;17.70;79.60;;;;;;4135637;28;19922;-85
2023/08/20 00:44:27;;;;;;;;;;;17.80;79.70;;;;;;4132489;28;19924;-85
2023/08/20 00:46:48;;;;;;;;;;;17.70;79.60;;;;;;4137358;28;20459;-85
2023/08/20 00:49:09;;;;;;;;;;;17.60;79.50;;;;;;4130985;28;20008;-85
2023/08/20 00:51:32;;;;;;;;;;;17.60;79.40;;;;;;4132383;28;19945;-85
2023/08/20 00:53:53;;;;;;;;;;;17.60;79.50;;;;;;4128567;28;19918;-86
2023/08/20 00:56:13;;;;;;;;;;;17.50;79.40;;;;;;4131963;28;19971;-85
2023/08/20 00:58:34;;;;;;;;;;;17.50;79.50;;;;;;4131940;28;19951;-85
2023/08/20 01:00:54;;;;;;;;;;;17.40;79.50;;;;;;4134456;28;19925;-86
2023/08/20 01:03:15;;;;;;;;;;;17.40;79.60;;;;;;4133259;28;20004;-85
2023/08/20 01:05:16;;;;;;;;;;;17.30;79.60;;;;;;4132655;28;19952;-85
2023/08/20 01:07:17;;;;;;;;;;;17.40;79.80;;;;;;4139970;28;20360;-85
2023/08/20 01:09:18;;;;;;;;;;;17.30;79.80;;;;;;4144351;28;19976;-85
2023/08/20 01:11:24;;;;;;;;;;;17.40;79.80;;;;;;4130947;28;19918;-85
2023/08/20 01:13:29;;;;;;;;;;;17.30;79.80;;;;;;4145175;28;19913;-85
2023/08/20 01:15:49;;;;;;;;;;;17.20;79.80;;;;;;4134880;28;19961;-85
2023/08/20 01:18:10;;;;;;;;;;;17.20;79.80;;;;;;4132388;28;19918;-85
2023/08/20 01:20:33;;;;;;;;;;;17.10;79.80;;;;;;4131117;28;19929;-85
2023/08/20 01:23:12;;;;;;;;;;;17.10;79.80;;;;;;4131498;28;19918;-85
2023/08/20 01:25:33;;;;;;;;;;;17.00;79.70;;;;;;4133968;28;20438;-85
2023/08/20 01:27:53;;;;;;;;;;;17.00;79.70;;;;;;4136034;28;19918;-85
2023/08/20 01:30:14;;;;;;;;;;;17.10;79.80;;;;;;4132617;28;19918;-85
2023/08/20 01:32:36;;;;;;;;;;;17.00;79.80;;;;;;4136981;28;19936;-85
2023/08/20 01:34:56;;;;;;;;;;;17.00;79.70;;;;;;4138811;28;19952;-85
2023/08/20 01:37:17;;;;;;;;;;;16.90;79.70;;;;;;4157099;28;20222;-86
2023/08/20 01:39:37;;;;;;;;;;;16.90;79.80;;;;;;4149038;28;19972;-88
2023/08/20 01:41:41;;;;;;;;;;;16.90;79.90;;;;;;4144708;28;20442;-85
2023/08/20 01:43:42;;;;;;;;;;;16.90;80.00;;;;;;4130764;28;20028;-85
2023/08/20 01:45:43;;;;;;;;;;;16.80;80.00;;;;;;4133178;28;20294;-87
2023/08/20 01:47:43;;;;;;;;;;;16.80;80.10;;;;;;4134939;28;20379;-85
2023/08/20 01:49:44;;;;;;;;;;;16.80;80.20;;;;;;4133889;28;19921;-85
2023/08/20 01:51:44;;;;;;;;;;;16.70;80.10;;;;;;4135550;28;19943;-85
2023/08/20 01:53:45;;;;;;;;;;;16.70;80.30;;;;;;4132128;28;20062;-84
2023/08/20 01:55:46;;;;;;;;;;;16.70;80.40;;;;;;4131608;28;19924;-85
2023/08/20 01:57:46;;;;;;;;;;;16.70;80.50;;;;;;4145019;28;20000;-85
2023/08/20 01:59:47;;;;;;;;;;;16.70;80.50;;;;;;4130734;28;19917;-85
2023/08/20 02:01:47;;;;;;;;;;;16.80;80.70;;;;;;4136129;28;19917;-86
2023/08/20 02:03:48;;;;;;;;;;;16.70;80.70;;;;;;4132181;28;20303;-85
2023/08/20 02:05:51;;;;;;;;;;;16.80;80.80;;;;;;4134546;28;19951;-85
2023/08/20 02:07:53;;;;;;;;;;;16.70;80.80;;;;;;4132678;28;19925;-85
2023/08/20 02:09:55;;;;;;;;;;;16.80;80.90;;;;;;4130882;28;19945;-85
2023/08/20 02:11:55;;;;;;;;;;;16.70;80.90;;;;;;4129029;28;20346;-85
2023/08/20 02:13:56;;;;;;;;;;;16.70;81.00;;;;;;4133173;28;19914;-85
2023/08/20 02:16:16;;;;;;;;;;;16.70;81.10;;;;;;4132209;28;19921;-86
2023/08/20 02:18:24;;;;;;;;;;;16.80;81.20;;;;;;4133979;28;19965;-85
2023/08/20 02:20:44;;;;;;;;;;;16.80;81.30;;;;;;4134099;28;20450;-85
2023/08/20 02:22:49;;;;;;;;;;;16.80;81.40;;;;;;4135898;28;20135;-84
2023/08/20 02:25:10;;;;;;;;;;;16.80;81.30;;;;;;4136710;28;20063;-85
2023/08/20 02:27:30;;;;;;;;;;;16.80;81.30;;;;;;4132311;28;20510;-85
2023/08/20 02:29:51;;;;;;;;;;;16.80;81.40;;;;;;4131317;28;20477;-84
2023/08/20 02:32:12;;;;;;;;;;;16.90;81.40;;;;;;4132510;28;20664;-86
2023/08/20 02:34:32;;;;;;;;;;;16.80;81.40;;;;;;4134991;28;20458;-85
2023/08/20 02:36:53;;;;;;;;;;;16.80;81.40;;;;;;4128218;28;20368;-85
2023/08/20 02:39:13;;;;;;;;;;;16.90;81.50;;;;;;4137324;28;20388;-84
2023/08/20 02:41:36;;;;;;;;;;;16.90;81.50;;;;;;4136509;28;20526;-84
2023/08/20 02:43:57;;;;;;;;;;;16.80;81.40;;;;;;4149511;28;20105;-85
2023/08/20 02:46:18;;;;;;;;;;;16.80;81.30;;;;;;4160896;28;21487;-85
2023/08/20 02:48:18;;;;;;;;;;;16.80;81.20;;;;;;4139688;28;19914;-85
2023/08/20 02:50:19;;;;;;;;;;;16.70;81.10;;;;;;4131525;28;19921;-85
2023/08/20 02:52:19;;;;;;;;;;;16.80;81.20;;;;;;4120525;28;19949;-85
2023/08/20 02:54:20;;;;;;;;;;;16.80;81.10;;;;;;4133954;28;20056;-85
2023/08/20 02:56:21;;;;;;;;;;;16.70;81.80;;;;;;4132414;28;19922;-85
2023/08/20 02:58:22;;;;;;;;;;;16.70;81.00;;;;;;4132521;28;20070;-84
2023/08/20 03:00:22;;;;;;;;;;;16.70;81.00;;;;;;4135519;28;19980;-85
2023/08/20 03:02:23;;;;;;;;;;;16.80;81.10;;;;;;4133795;28;20359;-85
2023/08/20 03:04:23;;;;;;;;;;;16.70;80.90;;;;;;4138629;28;20020;-85
2023/08/20 03:06:24;;;;;;;;;;;16.60;80.90;;;;;;4134764;28;19918;-85
2023/08/20 03:08:25;;;;;;;;;;;16.60;81.00;;;;;;4134122;28;20292;-85
2023/08/20 03:10:31;;;;;;;;;;;16.50;80.80;;;;;;4133595;28;20011;-84
2023/08/20 03:12:32;;;;;;;;;;;16.50;80.70;;;;;;4135995;28;20398;-85
2023/08/20 03:14:32;;;;;;;;;;;16.60;80.80;;;;;;4138404;28;19921;-85
2023/08/20 03:16:53;;;;;;;;;;;16.50;80.70;;;;;;4139921;28;20390;-85
2023/08/20 03:19:15;;;;;;;;;;;16.60;80.70;;;;;;4131692;28;20438;-84
2023/08/20 03:21:35;;;;;;;;;;;16.40;80.60;;;;;;4136786;28;20284;-85
2023/08/20 03:23:56;;;;;;;;;;;16.50;80.60;;;;;;4138076;28;20650;-85
2023/08/20 03:26:16;;;;;;;;;;;16.40;80.60;;;;;;4141189;28;19914;-86
2023/08/20 03:28:37;;;;;;;;;;;16.40;80.60;;;;;;4135900;28;19921;-85
2023/08/20 03:31:01;;;;;;;;;;;16.30;80.50;;;;;;4139234;28;20409;-85
2023/08/20 03:33:21;;;;;;;;;;;16.30;80.50;;;;;;4142342;28;19993;-85
2023/08/20 03:35:42;;;;;;;;;;;16.30;80.50;;;;;;4139041;28;20480;-85
2023/08/20 03:38:03;;;;;;;;;;;16.20;80.50;;;;;;4136734;28;20298;-84
2023/08/20 03:40:23;;;;;;;;;;;16.20;80.50;;;;;;4135463;28;20464;-85
2023/08/20 03:42:44;;;;;;;;;;;16.20;80.60;;;;;;4137082;28;20302;-85
2023/08/20 03:45:05;;;;;;;;;;;16.20;80.60;;;;;;4135772;28;20645;-85
2023/08/20 03:47:25;;;;;;;;;;;16.20;80.70;;;;;;4137623;28;20409;-85
2023/08/20 03:49:26;;;;;;;;;;;16.10;80.70;;;;;;4137209;28;19913;-85
2023/08/20 03:51:26;;;;;;;;;;;16.10;80.70;;;;;;4139209;28;19918;-85
2023/08/20 03:53:29;;;;;;;;;;;16.10;80.70;;;;;;4133641;28;19961;-85
2023/08/20 03:55:30;;;;;;;;;;;16.10;80.70;;;;;;4136630;28;20013;-85
2023/08/20 03:57:32;;;;;;;;;;;16.00;80.60;;;;;;4137532;28;19925;-85
2023/08/20 03:59:53;;;;;;;;;;;16.10;80.70;;;;;;4133177;28;20355;-85
2023/08/20 04:02:14;;;;;;;;;;;16.10;80.70;;;;;;4131791;28;21145;-85
2023/08/20 04:04:36;;;;;;;;;;;16.00;80.70;;;;;;4134587;28;20568;-85
2023/08/20 04:06:37;;;;;;;;;;;16.00;80.70;;;;;;4134232;28;20599;-84
2023/08/20 04:08:57;;;;;;;;;;;15.90;80.70;;;;;;4134907;28;19921;-85
2023/08/20 04:11:14;;;;;;;;;;;15.90;80.80;;;;;;4134643;28;20331;-85
2023/08/20 04:13:34;;;;;;;;;;;15.90;80.90;;;;;;4131447;28;20515;-85
2023/08/20 04:15:55;;;;;;;;;;;16.00;81.00;;;;;;4136473;28;21805;-85
2023/08/20 04:17:59;;;;;;;;;;;15.90;81.00;;;;;;4160479;28;19921;-85
2023/08/20 04:20:20;;;;;;;;;;;15.90;81.00;;;;;;4153858;28;19932;-85
2023/08/20 04:22:41;;;;;;;;;;;16.00;81.10;;;;;;4133817;28;20414;-85
2023/08/20 04:25:02;;;;;;;;;;;15.90;81.20;;;;;;4132368;28;20290;-84
2023/08/20 04:27:34;;;;;;;;;;;15.90;81.30;;;;;;4135776;28;20343;-86
2023/08/20 04:29:57;;;;;;;;;;;15.90;81.30;;;;;;4133954;28;19918;-85
2023/08/20 04:32:18;;;;;;;;;;;15.90;81.40;;;;;;4139231;28;20723;-85
2023/08/20 04:34:38;;;;;;;;;;;16.00;81.60;;;;;;4128174;28;20291;-85
2023/08/20 04:36:39;;;;;;;;;;;15.90;81.60;;;;;;4133058;28;19918;-85
2023/08/20 04:38:40;;;;;;;;;;;15.90;81.60;;;;;;4136270;28;19918;-85
2023/08/20 04:40:40;;;;;;;;;;;16.00;81.70;;;;;;4137823;28;19918;-85
2023/08/20 04:42:41;;;;;;;;;;;16.00;81.80;;;;;;4137534;28;19917;-85
2023/08/20 04:44:41;;;;;;;;;;;15.90;81.70;;;;;;4137012;28;19914;-86
2023/08/20 04:46:43;;;;;;;;;;;15.90;81.70;;;;;;4134921;28;19917;-85
2023/08/20 04:48:43;;;;;;;;;;;16.00;81.70;;;;;;4136683;28;20422;-85
2023/08/20 04:50:45;;;;;;;;;;;16.00;81.90;;;;;;4123666;28;20285;-85
2023/08/20 04:52:45;;;;;;;;;;;16.00;81.90;;;;;;4138799;28;19972;-85
2023/08/20 04:54:51;;;;;;;;;;;16.00;82.00;;;;;;4132123;28;20478;-85
2023/08/20 04:56:52;;;;;;;;;;;16.00;82.00;;;;;;4135437;28;19940;-85
2023/08/20 04:59:12;;;;;;;;;;;16.00;82.00;;;;;;4135421;28;19944;-85
2023/08/20 05:01:33;;;;;;;;;;;16.00;82.10;;;;;;4129834;28;19928;-86
2023/08/20 05:03:53;;;;;;;;;;;16.20;82.30;;;;;;4134369;28;19918;-85
2023/08/20 05:06:14;;;;;;;;;;;16.10;82.30;;;;;;4133967;28;20004;-85
2023/08/20 05:08:34;;;;;;;;;;;16.20;82.50;;;;;;4135064;28;19928;-85
2023/08/20 05:10:55;;;;;;;;;;;16.30;82.70;;;;;;4133414;28;20031;-85
2023/08/20 05:13:16;;;;;;;;;;;16.30;82.80;;;;;;4133676;28;19914;-85
2023/08/20 05:15:37;;;;;;;;;;;16.30;83.20;;;;;;4134044;28;19949;-85
2023/08/20 05:17:37;;;;;;;;;;;16.40;83.20;;;;;;4135691;28;19918;-85
2023/08/20 05:19:38;;;;;;;;;;;16.30;83.30;;;;;;4154405;28;19970;-84
2023/08/20 05:21:39;;;;;;;;;;;16.40;83.30;;;;;;4156164;28;19928;-85
2023/08/20 05:23:46;;;;;;;;;;;16.40;83.50;;;;;;4133042;28;19925;-84
2023/08/20 05:26:07;;;;;;;;;;;16.50;83.60;;;;;;4134014;28;19964;-86
2023/08/20 05:28:08;;;;;;;;;;;16.50;83.60;;;;;;4135834;28;20291;-85
2023/08/20 05:30:28;;;;;;;;;;;16.50;83.70;;;;;;4132759;28;19917;-85
2023/08/20 05:32:45;;;;;;;;;;;16.60;83.70;;;;;;4135224;28;19921;-86
2023/08/20 05:35:06;;;;;;;;;;;16.70;83.90;;;;;;4134573;28;19964;-85
2023/08/20 05:37:26;;;;;;;;;;;16.70;83.80;;;;;;4134483;28;19941;-85
2023/08/20 05:39:47;;;;;;;;;;;16.70;83.90;;;;;;4137834;28;19948;-85
2023/08/20 05:42:08;;;;;;;;;;;16.70;84.00;;;;;;4134036;28;19941;-85
2023/08/20 05:44:28;;;;;;;;;;;16.90;84.20;;;;;;4138051;28;19917;-85
2023/08/20 05:46:49;;;;;;;;;;;16.80;84.10;;;;;;4130960;28;19960;-85
2023/08/20 05:49:09;;;;;;;;;;;17.00;84.10;;;;;;4134155;28;19913;-84
2023/08/20 05:51:30;;;;;;;;;;;16.90;84.00;;;;;;4139278;28;19914;-85
2023/08/20 05:53:50;;;;;;;;;;;17.10;84.40;;;;;;4136279;28;19939;-85
2023/08/20 05:56:11;;;;;;;;;;;17.00;84.10;;;;;;4139181;28;19995;-85
2023/08/20 05:58:32;;;;;;;;;;;17.10;84.30;;;;;;4138085;28;19921;-85
2023/08/20 06:00:32;;;;;;;;;;;17.10;84.50;;;;;;4140930;28;19952;-85
2023/08/20 06:02:33;;;;;;;;;;;17.20;84.50;;;;;;4133709;28;19920;-85
2023/08/20 06:04:33;;;;;;;;;;;17.10;84.30;;;;;;4130717;28;19914;-85
2023/08/20 06:06:34;;;;;;;;;;;17.20;84.40;;;;;;4138872;28;19984;-85
2023/08/20 06:08:34;;;;;;;;;;;17.20;84.40;;;;;;4138316;28;19924;-85
2023/08/20 06:10:35;;;;;;;;;;;17.30;84.80;;;;;;4140588;28;19949;-85
2023/08/20 06:12:36;;;;;;;;;;;17.30;84.80;;;;;;4144944;28;19918;-86
2023/08/20 06:14:36;;;;;;;;;;;17.30;84.80;;;;;;4136630;28;19997;-85
2023/08/20 06:16:37;;;;;;;;;;;17.40;84.80;;;;;;4135437;28;19971;-85
2023/08/20 06:18:40;;;;;;;;;;;17.40;84.90;;;;;;4132930;28;19917;-85
2023/08/20 06:20:41;;;;;;;;;;;17.50;84.90;;;;;;4137117;28;19928;-85
2023/08/20 06:23:01;;;;;;;;;;;17.50;84.90;;;;;;4131333;28;20134;-85
2023/08/20 06:25:22;;;;;;;;;;;17.60;85.10;;;;;;4134837;28;19924;-85
2023/08/20 06:27:42;;;;;;;;;;;17.60;85.00;;;;;;4134074;28;19913;-86
2023/08/20 06:30:03;;;;;;;;;;;17.60;85.00;;;;;;4131037;28;19965;-85
2023/08/20 06:32:04;;;;;;;;;;;17.70;85.00;;;;;;4139519;28;19933;-85
2023/08/20 06:34:24;;;;;;;;;;;17.70;84.90;;;;;;4142220;28;19918;-85
2023/08/20 06:36:45;;;;;;;;;;;17.80;84.90;;;;;;4138196;28;19913;-85
2023/08/20 06:39:06;;;;;;;;;;;17.90;85.00;;;;;;4137529;28;19918;-85
2023/08/20 06:41:26;;;;;;;;;;;18.00;85.10;;;;;;4142345;28;19953;-85
2023/08/20 06:43:47;;;;;;;;;;;18.00;85.30;;;;;;4134734;28;20431;-85
2023/08/20 06:46:07;;;;;;;;;;;18.00;85.10;;;;;;4140398;28;19940;-85
2023/08/20 06:48:28;;;;;;;;;;;18.10;85.10;;;;;;4132635;28;19925;-84
2023/08/20 06:50:48;;;;;;;;;;;18.10;85.10;;;;;;4141027;28;19917;-85
2023/08/20 06:53:09;;;;;;;;;;;18.20;85.10;;;;;;4135905;28;19921;-86
2023/08/20 06:55:30;;;;;;;;;;;18.10;85.10;;;;;;4136793;28;19944;-86
2023/08/20 06:57:30;;;;;;;;;;;18.20;84.80;;;;;;4135323;28;19952;-85
2023/08/20 06:59:31;;;;;;;;;;;18.30;84.80;;;;;;4136697;28;20016;-86
2023/08/20 07:01:32;;;;;;;;;;;18.30;85.00;;;;;;4147372;28;20149;-86
2023/08/20 07:03:37;;;;;;;;;;;18.20;84.90;;;;;;4131841;28;19918;-84
2023/08/20 07:05:58;;;;;;;;;;;18.30;84.80;;;;;;4134724;28;19933;-85
2023/08/20 07:07:59;;;;;;;;;;;18.30;84.80;;;;;;4136781;28;19924;-85
2023/08/20 07:10:20;;;;;;;;;;;18.30;84.80;;;;;;4134245;28;19972;-85
2023/08/20 07:12:40;;;;;;;;;;;18.40;84.90;;;;;;4136267;28;19976;-85
2023/08/20 07:14:42;;;;;;;;;;;18.50;84.90;;;;;;4135826;28;19929;-85
2023/08/20 07:16:45;;;;;;;;;;;18.40;84.60;;;;;;4131199;28;20468;-85
2023/08/20 07:18:45;;;;;;;;;;;18.50;84.60;;;;;;4132833;28;20027;-85
2023/08/20 07:20:46;;;;;;;;;;;18.50;84.60;;;;;;4135967;28;19914;-86
2023/08/20 07:22:46;;;;;;;;;;;18.60;84.50;;;;;;4133562;28;19997;-86
2023/08/20 07:24:47;;;;;;;;;;;18.50;84.50;;;;;;4149366;28;19921;-85
2023/08/20 07:26:48;;;;;;;;;;;18.60;84.90;;;;;;4134196;28;19960;-86
2023/08/20 07:29:08;;;;;;;;;;;18.60;84.60;;;;;;4140679;28;20303;-86
2023/08/20 07:31:09;;;;;;;;;;;18.60;84.70;;;;;;4134236;28;19953;-85
2023/08/20 07:33:30;;;;;;;;;;;18.70;84.70;;;;;;4139217;28;19917;-85
2023/08/20 07:35:50;;;;;;;;;;;18.60;84.60;;;;;;4141821;28;19924;-84
2023/08/20 07:38:11;;;;;;;;;;;18.70;84.90;;;;;;4133094;28;19924;-84
2023/08/20 07:40:31;;;;;;;;;;;18.80;85.20;;;;;;4127660;28;19941;-85
2023/08/20 07:42:52;;;;;;;;;;;18.90;85.60;;;;;;4136138;28;19921;-87
2023/08/20 07:45:13;;;;;;;;;;;18.90;85.60;;;;;;4136495;28;20004;-84
2023/08/20 07:47:34;;;;;;;;;;;19.00;85.80;;;;;;4129474;28;19960;-85
2023/08/20 07:49:54;;;;;;;;;;;19.10;85.80;;;;;;4133331;28;19918;-85
2023/08/20 07:52:15;;;;;;;;;;;19.10;85.80;;;;;;4138682;28;19921;-84
2023/08/20 07:54:36;;;;;;;;;;;19.20;85.70;;;;;;4137621;28;19918;-86
2023/08/20 07:56:57;;;;;;;;;;;19.30;85.70;;;;;;4135466;28;19924;-85
2023/08/20 07:59:17;;;;;;;;;;;19.40;85.70;;;;;;4137090;28;19924;-84
2023/08/20 08:01:38;;;;;;;;;;;19.40;85.50;;;;;;4139947;28;19917;-85
2023/08/20 08:03:58;;;;;;;;;;;19.60;85.80;;;;;;4140006;28;19992;-85
2023/08/20 08:06:21;;;;;;;;;;;19.60;85.70;;;;;;4139638;28;19956;-84
2023/08/20 08:08:46;;;;;;;;;;;19.70;85.60;;;;;;4137627;28;19921;-83
2023/08/20 08:11:06;;;;;;;;;;;19.80;85.70;;;;;;4146041;28;19918;-83
2023/08/20 08:13:27;;;;;;;;;;;19.80;85.40;;;;;;4141538;28;20392;-84
2023/08/20 08:15:48;;;;;;;;;;;19.90;85.50;;;;;;4142410;28;19971;-84
2023/08/20 08:17:48;;;;;;;;;;;19.90;85.30;;;;;;4137346;28;20371;-83
2023/08/20 08:19:49;;;;;;;;;;;20.00;85.20;;;;;;4134024;28;19931;-83
2023/08/20 08:21:49;;;;;;;;;;;20.10;85.10;;;;;;4140983;28;20510;-83
2023/08/20 08:23:50;;;;;;;;;;;20.10;85.10;;;;;;4136930;28;19963;-85
2023/08/20 08:25:50;;;;;;;;;;;20.20;85.10;;;;;;4135341;28;20427;-84
2023/08/20 08:27:51;;;;;;;;;;;20.20;84.80;;;;;;4140088;28;19918;-84
2023/08/20 08:29:52;;;;;;;;;;;20.30;84.80;;;;;;4138387;28;19913;-83
2023/08/20 08:31:52;;;;;;;;;;;20.40;84.70;;;;;;4140557;28;19925;-83
2023/08/20 08:33:53;;;;;;;;;;;20.40;84.60;;;;;;4139499;28;19921;-83
2023/08/20 08:35:54;;;;;;;;;;;20.50;84.90;;;;;;4136726;28;19925;-84
2023/08/20 08:37:54;;;;;;;;;;;20.60;84.40;;;;;;4145104;28;19928;-84
2023/08/20 08:39:55;;;;;;;;;;;20.60;84.10;;;;;;4135042;28;20376;-83
2023/08/20 08:42:00;;;;;;;;;;;20.70;83.90;;;;;;4132418;28;19941;-84
2023/08/20 08:44:01;;;;;;;;;;;20.80;83.60;;;;;;4139352;28;19913;-84
2023/08/20 08:46:06;;;;;;;;;;;20.80;83.30;;;;;;4138408;28;20089;-83
2023/08/20 08:48:06;;;;;;;;;;;20.80;82.70;;;;;;4134412;28;19913;-85
2023/08/20 08:50:07;;;;;;;;;;;20.90;82.80;;;;;;4143129;28;20395;-84
2023/08/20 08:52:09;;;;;;;;;;;20.90;82.20;;;;;;4138071;28;20499;-84
2023/08/20 08:54:10;;;;;;;;;;;21.00;82.30;;;;;;4144842;28;20311;-83
2023/08/20 08:56:10;;;;;;;;;;;21.00;82.40;;;;;;4137037;28;19918;-84
2023/08/20 08:58:11;;;;;;;;;;;21.10;82.30;;;;;;4137804;28;19917;-84
2023/08/20 09:00:12;;;;;;;;;;;21.10;82.60;;;;;;4138967;28;20432;-84
2023/08/20 09:02:13;;;;;;;;;;;21.20;82.00;;;;;;4136361;28;19940;-85
2023/08/20 09:04:13;;;;;;;;;;;21.30;82.10;;;;;;4138987;28;20423;-85
2023/08/20 09:06:14;;;;;;;;;;;21.30;80.10;;;;;;4138001;28;19922;-85
2023/08/20 09:08:21;;;;;;;;;;;21.40;80.20;;;;;;4133171;28;20370;-83
2023/08/20 09:10:25;;;;;;;;;;;21.50;77.90;;;;;;4133896;28;19921;-84
2023/08/20 09:12:25;;;;;;;;;;;21.50;78.30;;;;;;4137812;28;20076;-85
2023/08/20 09:14:29;;;;;;;;;;;21.60;79.30;;;;;;4137307;28;19950;-84
2023/08/20 09:16:30;;;;;;;;;;;21.70;78.10;;;;;;4134736;28;19921;-84
2023/08/20 09:18:32;;;;;;;;;;;21.70;77.10;;;;;;4140059;28;20092;-85
2023/08/20 09:20:36;;;;;;;;;;;21.80;76.90;;;;;;4137648;28;19964;-85
2023/08/20 09:22:37;;;;;;;;;;;21.90;76.20;;;;;;4137724;28;19914;-84
2023/08/20 09:24:42;;;;;;;;;;;21.90;74.40;;;;;;4121575;28;19914;-85
2023/08/20 09:26:46;;;;;;;;;;;22.00;75.00;;;;;;4119618;28;19959;-84
2023/08/20 09:28:47;;;;;;;;;;;22.10;76.30;;;;;;4068141;28;19921;-85
2023/08/20 09:31:02;;;;;;;;;;;22.20;76.80;;;;;;4136574;28;19922;-85
2023/08/20 09:33:04;;;;;;;;;;;22.30;76.20;;;;;;4131349;28;19926;-85
2023/08/20 09:35:05;;;;;;;;;;;22.30;73.90;;;;;;4141259;28;19939;-85
2023/08/20 09:37:24;;;;;;;;;;;22.50;75.60;;;;;;4143587;28;19972;-85
2023/08/20 09:39:25;;;;;;;;;;;22.50;74.80;;;;;;4133238;28;19952;-84
2023/08/20 09:41:25;;;;;;;;;;;22.60;74.40;;;;;;4140491;28;19992;-84
2023/08/20 09:43:30;;;;;;;;;;;22.60;75.10;;;;;;4141756;28;20330;-85
2023/08/20 09:45:30;;;;;;;;;;;22.70;74.70;;;;;;4141615;28;19914;-86
2023/08/20 09:47:35;;;;;;;;;;;22.70;74.90;;;;;;4137746;28;19928;-86
2023/08/20 09:49:42;;;;;;;;;;;22.70;74.70;;;;;;4141571;28;20477;-85
2023/08/20 09:51:44;;;;;;;;;;;22.80;74.90;;;;;;4143891;28;20233;-86
2023/08/20 09:53:55;;;;;;;;;;;22.80;73.60;;;;;;4142528;28;19929;-85
2023/08/20 09:55:58;;;;;;;;;;;22.90;73.20;;;;;;4136939;28;19917;-85
2023/08/20 09:58:00;;;;;;;;;;;23.00;74.60;;;;;;4108078;28;19922;-85
2023/08/20 10:00:01;;;;;;;;;;;23.10;72.80;;;;;;4134033;28;20344;-86
2023/08/20 10:02:03;;;;;;;;;;;23.20;73.30;;;;;;4136583;28;20037;-85
2023/08/20 10:04:03;;;;;;;;;;;23.20;70.90;;;;;;4133707;28;20407;-85
2023/08/20 10:06:06;;;;;;;;;;;23.30;69.20;;;;;;4136102;28;19922;-87
2023/08/20 10:08:07;;;;;;;;;;;23.30;67.70;;;;;;4133179;28;19953;-83
2023/08/20 10:10:09;;;;;;;;;;;23.40;69.20;;;;;;4135344;28;19922;-84
2023/08/20 10:12:11;;;;;;;;;;;23.40;72.30;;;;;;4122580;28;19921;-84
2023/08/20 10:14:12;;;;;;;;;;;23.40;72.00;;;;;;4113769;28;19944;-85
2023/08/20 10:16:20;;;;;;;;;;;23.50;71.50;;;;;;4136950;28;19976;-84
2023/08/20 10:18:22;;;;;;;;;;;23.50;70.90;;;;;;4134715;28;20261;-86
2023/08/20 10:20:22;;;;;;;;;;;23.60;70.40;;;;;;4134679;28;20000;-85
2023/08/20 10:22:43;;;;;;;;;;;23.60;70.40;;;;;;4132709;28;19928;-88
2023/08/20 10:25:11;;;;;;;;;;;23.70;71.20;;;;;;4131666;28;19917;-85
2023/08/20 10:27:32;;;;;;;;;;;23.70;70.20;;;;;;4128342;28;19957;-85
2023/08/20 10:29:54;;;;;;;;;;;23.80;70.60;;;;;;4136301;28;19970;-86
2023/08/20 10:32:14;;;;;;;;;;;23.90;69.10;;;;;;4134120;28;19925;-85
2023/08/20 10:34:37;;;;;;;;;;;24.00;68.30;;;;;;4122138;28;20995;-85
2023/08/20 10:36:57;;;;;;;;;;;24.00;65.70;;;;;;4130481;28;19921;-87
2023/08/20 10:39:25;;;;;;;;;;;24.10;67.60;;;;;;4132674;28;19961;-86
2023/08/20 10:41:45;;;;;;;;;;;24.10;66.80;;;;;;4137299;28;19929;-86
2023/08/20 10:43:47;;;;;;;;;;;24.10;64.80;;;;;;4136008;28;20002;-87
2023/08/20 10:46:01;;;;;;;;;;;24.00;65.40;;;;;;4139674;28;19925;-87
2023/08/20 10:48:02;;;;;;;;;;;24.10;65.30;;;;;;4135068;28;19917;-86
2023/08/20 10:50:03;;;;;;;;;;;24.00;65.20;;;;;;4136815;28;20453;-88
2023/08/20 10:52:05;;;;;;;;;;;24.00;65.00;;;;;;4137150;28;20395;-87
2023/08/20 10:54:07;;;;;;;;;;;24.00;63.20;;;;;;4139142;28;19977;-86
2023/08/20 10:56:08;;;;;;;;;;;24.00;65.00;;;;;;4139929;28;20007;-87
2023/08/20 10:58:09;;;;;;;;;;;24.00;64.70;;;;;;4144766;28;19979;-88
2023/08/20 11:00:15;;;;;;;;;;;24.00;62.60;;;;;;4138846;28;20342;-87
2023/08/20 11:02:15;;;;;;;;;;;24.00;61.90;;;;;;4142249;28;19922;-88
2023/08/20 11:04:17;;;;;;;;;;;24.00;61.60;;;;;;4137668;28;19982;-86
2023/08/20 11:06:18;;;;;;;;;;;23.90;62.80;;;;;;4137429;28;20002;-86
2023/08/20 11:08:21;;;;;;;;;;;24.00;65.50;;;;;;4138646;28;19933;-87
2023/08/20 11:10:21;;;;;;;;;;;24.00;64.10;;;;;;4135673;28;20011;-86
2023/08/20 11:12:22;;;;;;;;;;;24.00;63.60;;;;;;4140888;28;21705;-86
2023/08/20 11:14:22;;;;;;;;;;;24.10;64.50;;;;;;4135285;28;20838;-87
2023/08/20 11:16:23;;;;;;;;;;;24.10;64.20;;;;;;4135510;28;19925;-88
2023/08/20 11:18:24;;;;;;;;;;;24.00;63.80;;;;;;4140825;28;19926;-86
2023/08/20 11:20:25;;;;;;;;;;;24.00;64.60;;;;;;4136697;28;19920;-86
2023/08/20 11:22:27;;;;;;;;;;;24.00;63.50;;;;;;4143504;28;20010;-87
2023/08/20 11:24:30;;;;;;;;;;;24.00;62.50;;;;;;4137984;28;19920;-85
2023/08/20 11:26:31;;;;;;;;;;;23.90;61.50;;;;;;4144291;28;19922;-87
2023/08/20 11:28:31;;;;;;;;;;;23.90;61.50;;;;;;4160177;28;19933;-87
2023/08/20 11:30:32;;;;;;;;;;;23.90;63.60;;;;;;4155096;28;19921;-87
2023/08/20 11:32:33;;;;;;;;;;;23.90;60.70;;;;;;4135051;28;19922;-87
2023/08/20 11:34:33;;;;;;;;;;;24.00;63.40;;;;;;4147888;28;19921;-87
2023/08/20 11:36:35;;;;;;;;;;;24.00;64.40;;;;;;4138187;28;19913;-88
2023/08/20 11:38:35;;;;;;;;;;;24.10;63.70;;;;;;4136419;28;19925;-86
2023/08/20 11:40:36;;;;;;;;;;;24.10;63.00;;;;;;4139925;28;19925;-86
2023/08/20 11:42:37;;;;;;;;;;;24.20;64.30;;;;;;4136171;28;19913;-88
2023/08/20 11:44:45;;;;;;;;;;;24.20;63.30;;;;;;4142283;28;19940;-87
2023/08/20 11:46:46;;;;;;;;;;;24.20;62.80;;;;;;4134083;28;20291;-86
2023/08/20 11:48:58;;;;;;;;;;;24.30;62.30;;;;;;4140824;28;19913;-86
2023/08/20 11:50:59;;;;;;;;;;;24.30;62.30;;;;;;4136382;28;19914;-87
2023/08/20 11:53:01;;;;;;;;;;;24.40;62.30;;;;;;4144055;28;19913;-87
2023/08/20 11:55:02;;;;;;;;;;;24.50;62.50;;;;;;4138650;28;19978;-86
2023/08/20 11:57:03;;;;;;;;;;;24.50;61.60;;;;;;4142655;28;19914;-86
2023/08/20 11:59:04;;;;;;;;;;;24.50;62.10;;;;;;4137322;28;20395;-87
2023/08/20 12:01:07;;;;;;;;;;;24.60;61.60;;;;;;4148677;28;19921;-86
2023/08/20 12:03:12;;;;;;;;;;;24.70;58.20;;;;;;4141266;28;19925;-88
2023/08/20 12:05:14;;;;;;;;;;;24.70;58.70;;;;;;4124938;28;19918;-88
2023/08/20 12:07:14;;;;;;;;;;;24.80;57.30;;;;;;4135159;28;19913;-87
2023/08/20 12:09:20;;;;;;;;;;;24.80;60.00;;;;;;4123886;28;19941;-88
2023/08/20 12:11:23;;;;;;;;;;;24.90;60.50;;;;;;4137311;28;20426;-87
2023/08/20 12:13:24;;;;;;;;;;;24.90;59.40;;;;;;4137970;28;19922;-86
2023/08/20 12:15:25;;;;;;;;;;;25.00;59.20;;;;;;4133655;28;20458;-86
2023/08/20 12:17:27;;;;;;;;;;;25.00;60.10;;;;;;4140082;28;19976;-87
2023/08/20 12:19:27;;;;;;;;;;;25.00;59.10;;;;;;4147015;28;19917;-86
2023/08/20 12:21:28;;;;;;;;;;;25.10;58.30;;;;;;4139500;28;19918;-87
2023/08/20 12:23:28;;;;;;;;;;;25.10;58.60;;;;;;4125926;28;20404;-86
2023/08/20 12:25:33;;;;;;;;;;;25.10;58.00;;;;;;4137948;28;20002;-86
2023/08/20 12:27:34;;;;;;;;;;;25.10;57.20;;;;;;4138639;28;20000;-87
2023/08/20 12:29:43;;;;;;;;;;;25.10;57.70;;;;;;4123434;28;19914;-86
2023/08/20 12:31:44;;;;;;;;;;;25.10;57.30;;;;;;4135507;28;19952;-86
2023/08/20 12:33:45;;;;;;;;;;;25.10;57.20;;;;;;4134386;28;19918;-86